createdAt,value
2018-07-30T00:00:52.030Z,22.40
2018-07-30T00:03:22.121Z,22.30
2018-07-30T00:05:52.134Z,22.30
2018-07-30T00:08:22.146Z,22.40
2018-07-30T00:10:52.147Z,22.30
2018-07-30T00:13:22.146Z,22.30
2018-07-30T00:15:52.142Z,22.30
2018-07-30T00:18:22.363Z,22.20
2018-07-30T00:20:52.294Z,22.20
2018-07-30T00:23:22.342Z,22.10
2018-07-30T00:25:52.321Z,22.00
2018-07-30T00:28:22.489Z,22.20
2018-07-30T00:30:52.474Z,22.40
2018-07-30T00:33:22.940Z,22.60
2018-07-30T00:35:52.366Z,22.40
2018-07-30T00:38:22.358Z,22.30
2018-07-30T00:40:52.544Z,22.10
2018-07-30T00:43:23.554Z,22.00
2018-07-30T00:45:52.699Z,22.00
2018-07-30T00:48:22.546Z,22.00
2018-07-30T00:50:52.597Z,22.00
2018-07-30T00:53:22.649Z,22.00
2018-07-30T00:55:52.713Z,21.90
2018-07-30T00:58:22.822Z,21.80
2018-07-30T01:00:52.665Z,21.90
2018-07-30T01:03:22.853Z,21.90
2018-07-30T01:05:53.628Z,21.80
2018-07-30T01:08:22.677Z,21.90
2018-07-30T01:10:52.810Z,21.90
2018-07-30T01:13:22.766Z,21.90
2018-07-30T01:15:52.901Z,22.00
2018-07-30T01:18:22.887Z,22.20
2018-07-30T01:20:53.173Z,22.20
2018-07-30T01:23:22.680Z,22.20
2018-07-30T01:25:52.745Z,22.00
2018-07-30T01:28:23.000Z,21.90
2018-07-30T01:30:53.031Z,21.90
2018-07-30T01:33:23.053Z,22.00
2018-07-30T01:35:53.090Z,22.10
2018-07-30T01:38:23.119Z,22.00
2018-07-30T01:40:53.077Z,21.70
2018-07-30T01:43:23.213Z,21.80
2018-07-30T01:45:53.314Z,22.00
2018-07-30T01:48:23.347Z,22.00
2018-07-30T01:50:53.279Z,21.90
2018-07-30T01:53:23.222Z,21.90
2018-07-30T01:55:53.445Z,21.80
2018-07-30T01:58:23.469Z,21.80
2018-07-30T02:00:53.364Z,21.90
2018-07-30T02:03:23.375Z,21.90
2018-07-30T02:05:53.465Z,21.90
2018-07-30T02:08:23.418Z,22.00
2018-07-30T02:10:53.426Z,22.00
2018-07-30T02:13:23.418Z,21.90
2018-07-30T02:15:53.518Z,22.00
2018-07-30T02:18:23.579Z,21.90
2018-07-30T02:20:53.727Z,21.80
2018-07-30T02:23:23.710Z,21.70
2018-07-30T02:25:53.738Z,21.60
2018-07-30T02:28:23.629Z,21.50
2018-07-30T02:30:53.738Z,21.50
2018-07-30T02:33:26.172Z,21.50
2018-07-30T02:35:55.850Z,21.40
2018-07-30T02:38:24.940Z,21.40
2018-07-30T02:40:54.032Z,21.40
2018-07-30T02:43:23.887Z,21.50
2018-07-30T02:45:53.935Z,21.60
2018-07-30T02:48:24.079Z,21.70
2018-07-30T02:50:53.955Z,21.80
2018-07-30T02:53:24.086Z,21.80
2018-07-30T02:55:54.070Z,21.70
2018-07-30T02:58:24.092Z,21.60
2018-07-30T03:00:54.094Z,21.50
2018-07-30T03:03:24.222Z,21.40
2018-07-30T03:05:54.262Z,21.40
2018-07-30T03:08:24.198Z,21.30
2018-07-30T03:10:54.130Z,21.30
2018-07-30T03:13:24.094Z,21.40
2018-07-30T03:15:54.146Z,21.30
2018-07-30T03:18:24.452Z,21.30
2018-07-30T03:20:55.042Z,21.30
2018-07-30T03:23:24.502Z,21.30
2018-07-30T03:25:54.469Z,21.30
2018-07-30T03:28:24.434Z,21.20
2018-07-30T03:30:54.526Z,21.20
2018-07-30T03:33:24.570Z,21.20
2018-07-30T03:35:54.591Z,21.10
2018-07-30T03:38:24.773Z,21.10
2018-07-30T03:40:54.658Z,21.00
2018-07-30T03:43:24.819Z,21.00
2018-07-30T03:45:54.758Z,21.20
2018-07-30T03:48:24.791Z,21.20
2018-07-30T03:50:54.795Z,21.10
2018-07-30T03:53:24.818Z,21.10
2018-07-30T03:55:54.733Z,21.20
2018-07-30T03:58:25.153Z,21.10
2018-07-30T04:00:56.560Z,21.10
2018-07-30T04:03:25.706Z,21.20
2018-07-30T04:05:55.715Z,21.20
2018-07-30T04:08:25.010Z,21.20
2018-07-30T04:10:55.112Z,21.30
2018-07-30T04:13:25.090Z,21.20
2018-07-30T04:15:55.120Z,21.30
2018-07-30T04:18:25.070Z,21.20
2018-07-30T04:20:55.137Z,21.20
2018-07-30T04:23:25.173Z,21.20
2018-07-30T04:25:55.150Z,21.30
2018-07-30T04:28:24.342Z,21.30
2018-07-30T04:30:53.524Z,21.20
2018-07-30T04:33:22.670Z,21.30
2018-07-30T04:35:51.742Z,21.30
2018-07-30T04:38:20.913Z,21.40
2018-07-30T04:40:50.111Z,21.40
2018-07-30T04:43:19.014Z,21.50
2018-07-30T04:45:48.176Z,21.60
2018-07-30T04:48:17.261Z,21.60
2018-07-30T04:50:46.391Z,21.70
2018-07-30T04:53:15.530Z,21.80
2018-07-30T04:55:44.610Z,21.70
2018-07-30T04:58:13.653Z,21.60
2018-07-30T05:00:42.709Z,21.50
2018-07-30T05:03:11.882Z,21.30
2018-07-30T05:05:41.399Z,21.50
2018-07-30T05:08:10.584Z,21.50
2018-07-30T05:10:39.843Z,21.60
2018-07-30T05:13:09.367Z,21.70
2018-07-30T05:15:38.602Z,21.80
2018-07-30T05:18:07.762Z,21.80
2018-07-30T05:20:36.942Z,21.90
2018-07-30T05:23:05.978Z,21.70
2018-07-30T05:25:35.166Z,21.90
2018-07-30T05:28:05.316Z,21.80
2018-07-30T05:30:34.471Z,22.10
2018-07-30T05:33:03.663Z,22.20
2018-07-30T05:35:32.901Z,22.20
2018-07-30T05:38:01.954Z,22.30
2018-07-30T05:40:31.132Z,22.70
2018-07-30T05:43:00.362Z,23.00
2018-07-30T05:45:29.585Z,22.90
2018-07-30T05:47:58.713Z,22.80
2018-07-30T05:50:27.842Z,22.70
2018-07-30T05:52:56.926Z,22.70
2018-07-30T05:55:27.214Z,23.10
2018-07-30T05:57:56.309Z,23.20
2018-07-30T06:00:25.491Z,23.50
2018-07-30T06:02:54.594Z,23.40
2018-07-30T06:05:23.670Z,23.50
2018-07-30T06:07:53.238Z,23.80
2018-07-30T06:10:22.469Z,23.80
2018-07-30T06:12:51.518Z,23.80
2018-07-30T06:15:20.573Z,24.10
2018-07-30T06:17:49.656Z,24.00
2018-07-30T06:20:18.886Z,24.30
2018-07-30T06:22:47.912Z,24.50
2018-07-30T06:25:17.003Z,24.40
2018-07-30T06:27:46.079Z,24.50
2018-07-30T06:30:15.168Z,24.70
2018-07-30T06:32:44.197Z,24.80
2018-07-30T06:35:13.394Z,25.20
2018-07-30T06:37:42.530Z,25.40
2018-07-30T06:40:11.666Z,25.30
2018-07-30T06:42:40.814Z,25.40
2018-07-30T06:45:09.834Z,25.40
2018-07-30T06:47:38.954Z,25.50
2018-07-30T06:50:08.039Z,25.80
2018-07-30T06:52:37.145Z,25.90
2018-07-30T06:55:07.711Z,25.60
2018-07-30T06:57:36.871Z,25.70
2018-07-30T07:00:08.803Z,25.40
2018-07-30T07:02:37.958Z,25.70
2018-07-30T07:05:08.275Z,25.90
2018-07-30T07:07:37.417Z,25.90
2018-07-30T07:10:09.456Z,26.20
2018-07-30T07:12:38.730Z,26.30
2018-07-30T07:15:11.329Z,26.30
2018-07-30T07:17:41.247Z,26.40
2018-07-30T07:20:10.420Z,26.40
2018-07-30T07:22:39.545Z,26.30
2018-07-30T07:25:08.726Z,26.40
2018-07-30T07:27:37.918Z,26.20
2018-07-30T07:30:08.451Z,26.50
2018-07-30T07:32:37.682Z,26.70
2018-07-30T07:35:07.066Z,26.90
2018-07-30T07:37:36.222Z,26.90
2018-07-30T07:40:06.497Z,27.00
2018-07-30T07:42:35.642Z,26.90
2018-07-30T07:45:05.703Z,27.20
2018-07-30T07:47:34.919Z,27.20
2018-07-30T07:50:03.991Z,27.30
2018-07-30T07:52:33.019Z,27.40
2018-07-30T07:55:02.039Z,27.30
2018-07-30T07:57:31.132Z,27.10
2018-07-30T08:00:00.323Z,27.20
2018-07-30T08:02:29.486Z,27.40
2018-07-30T08:04:58.555Z,27.40
2018-07-30T08:07:27.742Z,27.60
2018-07-30T08:09:56.994Z,27.80
2018-07-30T08:12:25.970Z,27.90
2018-07-30T08:14:55.114Z,28.10
2018-07-30T08:17:24.307Z,28.20
2018-07-30T08:19:53.550Z,28.30
2018-07-30T08:22:22.709Z,28.40
2018-07-30T08:24:51.665Z,28.60
2018-07-30T08:27:20.797Z,28.60
2018-07-30T08:29:50.111Z,28.60
2018-07-30T08:32:19.171Z,28.50
2018-07-30T08:34:48.226Z,28.60
2018-07-30T08:37:17.329Z,28.30
2018-07-30T08:39:46.463Z,28.00
2018-07-30T08:42:15.590Z,28.20
2018-07-30T08:44:44.701Z,28.40
2018-07-30T08:47:13.858Z,28.60
2018-07-30T08:49:43.183Z,28.90
2018-07-30T08:52:12.348Z,29.00
2018-07-30T08:54:41.518Z,29.30
2018-07-30T08:57:10.742Z,29.40
2018-07-30T08:59:39.862Z,29.50
2018-07-30T09:02:08.966Z,29.50
2018-07-30T09:04:38.588Z,29.70
2018-07-30T09:07:07.845Z,29.80
2018-07-30T09:09:37.070Z,29.80
2018-07-30T09:12:06.529Z,29.90
2018-07-30T09:14:35.601Z,30.00
2018-07-30T09:17:04.972Z,30.10
2018-07-30T09:19:34.166Z,30.20
2018-07-30T09:22:03.285Z,30.30
2018-07-30T09:24:33.205Z,30.40
2018-07-30T09:27:02.575Z,30.40
2018-07-30T09:29:31.914Z,30.40
2018-07-30T09:32:01.174Z,30.30
2018-07-30T09:34:30.550Z,30.50
2018-07-30T09:36:59.526Z,30.50
2018-07-30T09:39:28.648Z,30.20
2018-07-30T09:41:57.781Z,30.20
2018-07-30T09:44:27.226Z,30.60
2018-07-30T09:46:56.329Z,30.70
2018-07-30T09:49:25.499Z,30.60
2018-07-30T09:51:54.902Z,30.70
2018-07-30T09:54:23.993Z,30.60
2018-07-30T09:56:53.136Z,30.80
2018-07-30T09:59:22.254Z,31.00
2018-07-30T10:01:51.407Z,31.20
2018-07-30T10:04:20.729Z,31.10
2018-07-30T10:06:55.800Z,31.00
2018-07-30T10:09:25.993Z,30.90
2018-07-30T10:11:56.486Z,30.90
2018-07-30T10:14:26.487Z,31.20
2018-07-30T10:16:56.015Z,31.20
2018-07-30T10:19:25.202Z,31.10
2018-07-30T10:21:54.405Z,30.80
2018-07-30T10:24:23.550Z,30.90
2018-07-30T10:26:53.105Z,30.60
2018-07-30T10:29:23.227Z,30.30
2018-07-30T10:31:53.069Z,30.40
2018-07-30T10:34:22.265Z,30.70
2018-07-30T10:36:51.408Z,31.00
2018-07-30T10:39:20.969Z,31.20
2018-07-30T10:41:50.187Z,31.60
2018-07-30T10:44:19.307Z,31.80
2018-07-30T10:46:49.446Z,31.80
2018-07-30T10:49:20.046Z,31.90
2018-07-30T10:51:49.320Z,31.80
2018-07-30T10:54:18.647Z,32.00
2018-07-30T10:56:47.868Z,32.00
2018-07-30T10:59:17.167Z,32.10
2018-07-30T11:01:46.666Z,32.20
2018-07-30T11:04:15.982Z,32.10
2018-07-30T11:06:45.159Z,32.00
2018-07-30T11:09:14.294Z,32.30
2018-07-30T11:11:44.408Z,32.60
2018-07-30T11:14:13.665Z,33.10
2018-07-30T11:16:42.850Z,33.50
2018-07-30T11:19:12.046Z,33.80
2018-07-30T11:21:41.433Z,34.30
2018-07-30T11:24:10.493Z,34.50
2018-07-30T11:26:39.592Z,34.40
2018-07-30T11:29:08.725Z,34.90
2018-07-30T11:31:38.142Z,34.60
2018-07-30T11:34:07.412Z,33.80
2018-07-30T11:36:36.573Z,33.10
2018-07-30T11:39:09.850Z,32.10
2018-07-30T11:41:39.166Z,31.60
2018-07-30T11:44:09.438Z,32.40
2018-07-30T11:46:38.826Z,33.30
2018-07-30T11:49:08.290Z,34.20
2018-07-30T11:51:37.302Z,34.40
2018-07-30T11:54:06.361Z,34.80
2018-07-30T11:56:35.377Z,34.40
2018-07-30T11:59:04.532Z,33.40
2018-07-30T12:01:33.723Z,33.20
2018-07-30T12:04:02.967Z,32.80
2018-07-30T12:06:32.036Z,32.00
2018-07-30T12:09:01.098Z,31.60
2018-07-30T12:11:30.268Z,32.10
2018-07-30T12:13:59.432Z,33.20
2018-07-30T12:16:28.646Z,34.50
2018-07-30T12:18:57.843Z,35.10
2018-07-30T12:21:27.234Z,35.10
2018-07-30T12:23:56.465Z,35.10
2018-07-30T12:26:25.772Z,35.60
2018-07-30T12:28:54.846Z,35.80
2018-07-30T12:31:24.006Z,36.10
2018-07-30T12:33:53.114Z,36.80
2018-07-30T12:36:22.335Z,36.70
2018-07-30T12:38:51.491Z,36.60
2018-07-30T12:41:20.663Z,35.90
2018-07-30T12:43:49.791Z,34.50
2018-07-30T12:46:19.971Z,33.30
2018-07-30T12:48:49.140Z,32.40
2018-07-30T12:51:18.226Z,31.70
2018-07-30T12:53:47.381Z,31.00
2018-07-30T12:56:17.787Z,30.30
2018-07-30T12:58:46.957Z,30.00
2018-07-30T13:01:16.725Z,31.00
2018-07-30T13:03:46.127Z,32.70
2018-07-30T13:06:15.351Z,33.50
2018-07-30T13:08:45.561Z,34.30
2018-07-30T13:11:14.885Z,35.10
2018-07-30T13:13:44.206Z,35.80
2018-07-30T13:16:13.538Z,36.60
2018-07-30T13:18:42.779Z,37.20
2018-07-30T13:21:12.138Z,37.40
2018-07-30T13:23:41.321Z,36.80
2018-07-30T13:26:10.487Z,36.70
2018-07-30T13:28:39.685Z,37.00
2018-07-30T13:31:08.933Z,36.90
2018-07-30T13:33:38.299Z,36.90
2018-07-30T13:36:07.427Z,36.40
2018-07-30T13:38:36.676Z,36.10
2018-07-30T13:41:06.974Z,36.00
2018-07-30T13:43:36.166Z,35.20
2018-07-30T13:46:05.371Z,34.40
2018-07-30T13:48:34.783Z,33.90
2018-07-30T13:51:03.941Z,33.30
2018-07-30T13:53:33.141Z,32.90
2018-07-30T13:56:02.216Z,32.70
2018-07-30T13:58:31.436Z,32.40
2018-07-30T14:01:00.678Z,32.50
2018-07-30T14:03:29.721Z,32.40
2018-07-30T14:05:59.014Z,32.30
2018-07-30T14:08:28.186Z,32.20
2018-07-30T14:10:57.403Z,32.00
2018-07-30T14:13:27.465Z,31.80
2018-07-30T14:15:56.631Z,32.00
2018-07-30T14:18:25.710Z,32.00
2018-07-30T14:20:54.784Z,31.80
2018-07-30T14:23:23.991Z,31.70
2018-07-30T14:25:53.155Z,31.60
2018-07-30T14:28:22.357Z,31.60
2018-07-30T14:30:51.520Z,31.50
2018-07-30T14:33:20.666Z,31.50
2018-07-30T14:35:51.327Z,31.50
2018-07-30T14:38:20.734Z,31.50
2018-07-30T14:40:49.911Z,31.70
2018-07-30T14:43:19.078Z,31.80
2018-07-30T14:45:48.399Z,31.60
2018-07-30T14:48:18.212Z,31.50
2018-07-30T14:50:47.943Z,31.50
2018-07-30T14:53:17.214Z,31.50
2018-07-30T14:55:46.307Z,31.50
2018-07-30T14:58:15.473Z,31.50
2018-07-30T15:00:44.901Z,31.60
2018-07-30T15:03:14.288Z,31.50
2018-07-30T15:05:43.461Z,31.70
2018-07-30T15:08:12.721Z,32.10
2018-07-30T15:10:42.691Z,32.00
2018-07-30T15:13:11.779Z,32.00
2018-07-30T15:15:41.965Z,31.50
2018-07-30T15:18:12.468Z,31.30
2018-07-30T15:20:42.650Z,30.80
2018-07-30T15:23:13.044Z,30.50
2018-07-30T15:25:43.097Z,30.30
2018-07-30T15:28:13.288Z,30.10
2018-07-30T15:30:43.171Z,29.90
2018-07-30T15:33:13.041Z,30.20
2018-07-30T15:35:43.158Z,30.20
2018-07-30T15:38:12.970Z,30.00
2018-07-30T15:40:42.995Z,29.80
2018-07-30T15:43:13.108Z,29.50
2018-07-30T15:45:43.662Z,29.50
2018-07-30T15:48:14.617Z,29.30
2018-07-30T15:50:43.885Z,29.70
2018-07-30T15:53:13.155Z,30.10
2018-07-30T15:55:42.673Z,30.60
2018-07-30T15:58:12.193Z,30.90
2018-07-30T16:00:41.249Z,31.20
2018-07-30T16:03:10.435Z,31.30
2018-07-30T16:05:39.651Z,31.40
2018-07-30T16:08:08.872Z,31.30
2018-07-30T16:10:38.176Z,31.50
2018-07-30T16:13:07.318Z,31.50
2018-07-30T16:15:36.851Z,31.60
2018-07-30T16:18:05.982Z,31.60
2018-07-30T16:20:37.171Z,31.70
2018-07-30T16:23:11.583Z,31.80
2018-07-30T16:25:40.794Z,31.80
2018-07-30T16:28:10.161Z,31.90
2018-07-30T16:30:39.429Z,31.90
2018-07-30T16:33:08.475Z,32.00
2018-07-30T16:35:37.570Z,32.00
2018-07-30T16:38:06.763Z,32.30
2018-07-30T16:40:35.923Z,32.50
2018-07-30T16:43:05.094Z,32.70
2018-07-30T16:45:34.153Z,32.60
2018-07-30T16:48:03.815Z,32.70
2018-07-30T16:50:32.886Z,32.50
2018-07-30T16:53:01.966Z,32.30
2018-07-30T16:55:31.109Z,32.50
2018-07-30T16:58:00.250Z,32.60
2018-07-30T17:00:29.382Z,32.60
2018-07-30T17:02:58.537Z,32.60
2018-07-30T17:05:27.674Z,32.60
2018-07-30T17:07:56.885Z,32.50
2018-07-30T17:10:26.121Z,32.20
2018-07-30T17:12:55.359Z,32.10
2018-07-30T17:15:24.418Z,32.00
2018-07-30T17:17:53.674Z,31.80
2018-07-30T17:20:22.826Z,31.80
2018-07-30T17:22:52.090Z,31.70
2018-07-30T17:25:21.221Z,31.70
2018-07-30T17:27:54.084Z,31.30
2018-07-30T17:30:25.949Z,30.90
2018-07-30T17:32:55.062Z,30.80
2018-07-30T17:35:24.221Z,30.40
2018-07-30T17:37:53.372Z,30.30
2018-07-30T17:40:22.487Z,29.90
2018-07-30T17:42:51.587Z,29.60
2018-07-30T17:45:20.825Z,29.50
2018-07-30T17:47:50.294Z,29.30
2018-07-30T17:50:19.381Z,29.40
2018-07-30T17:52:48.546Z,29.30
2018-07-30T17:55:17.798Z,29.20
2018-07-30T17:57:46.938Z,29.10
2018-07-30T18:00:16.017Z,29.00
2018-07-30T18:02:45.284Z,28.80
2018-07-30T18:05:17.964Z,28.70
2018-07-30T18:07:48.766Z,28.60
2018-07-30T18:10:17.955Z,28.40
2018-07-30T18:12:47.962Z,28.30
2018-07-30T18:15:17.160Z,28.20
2018-07-30T18:17:46.286Z,28.10
2018-07-30T18:20:15.590Z,28.00
2018-07-30T18:22:44.738Z,27.90
2018-07-30T18:25:13.861Z,27.80
2018-07-30T18:27:43.014Z,27.70
2018-07-30T18:30:12.169Z,27.60
2018-07-30T18:32:42.254Z,27.50
2018-07-30T18:35:11.230Z,27.40
2018-07-30T18:37:40.458Z,27.30
2018-07-30T18:40:09.636Z,27.20
2018-07-30T18:42:38.753Z,27.20
2018-07-30T18:45:08.397Z,27.10
2018-07-30T18:47:37.527Z,27.00
2018-07-30T18:50:07.308Z,26.90
2018-07-30T18:52:36.720Z,26.80
2018-07-30T18:55:05.982Z,26.70
2018-07-30T18:57:35.084Z,26.60
2018-07-30T19:00:05.322Z,26.50
2018-07-30T19:02:34.421Z,26.40
2018-07-30T19:05:03.686Z,26.30
2018-07-30T19:07:32.842Z,26.30
2018-07-30T19:10:02.034Z,26.30
2018-07-30T19:12:31.205Z,26.20
2018-07-30T19:15:00.473Z,26.10
2018-07-30T19:17:29.623Z,26.00
2018-07-30T19:19:58.737Z,26.00
2018-07-30T19:22:30.143Z,25.90
2018-07-30T19:25:00.291Z,25.90
2018-07-30T19:27:30.214Z,25.90
2018-07-30T19:30:00.467Z,25.80
2018-07-30T19:32:31.782Z,25.90
2018-07-30T19:35:01.105Z,25.80
2018-07-30T19:37:31.744Z,25.80
2018-07-30T19:40:00.760Z,25.70
2018-07-30T19:42:29.838Z,25.60
2018-07-30T19:44:58.950Z,25.50
2018-07-30T19:47:28.061Z,25.50
2018-07-30T19:49:57.122Z,25.40
2018-07-30T19:52:27.361Z,25.30
2018-07-30T19:54:56.519Z,25.30
2018-07-30T19:57:25.783Z,25.20
2018-07-30T19:59:54.807Z,25.30
2018-07-30T20:21:28.834Z,24.90
2018-07-30T20:23:59.754Z,24.90
2018-07-30T20:55:53.142Z,25.00
2018-07-30T20:58:23.998Z,24.20
2018-07-30T21:00:53.185Z,24.10
2018-07-30T21:03:22.248Z,24.10
2018-07-30T21:05:51.558Z,24.10
2018-07-30T21:08:20.942Z,24.20
2018-07-30T21:10:50.214Z,24.20
2018-07-30T21:13:19.346Z,24.30
2018-07-30T21:15:48.495Z,24.10
2018-07-30T21:18:18.396Z,24.10
2018-07-30T21:20:47.667Z,24.00
2018-07-30T21:23:17.941Z,24.00
2018-07-30T21:25:47.970Z,24.00
2018-07-30T21:28:17.254Z,23.90
2018-07-30T21:30:46.370Z,23.90
2018-07-30T21:33:15.472Z,23.90
2018-07-30T21:35:45.796Z,23.90
2018-07-30T21:38:15.242Z,23.90
2018-07-30T21:40:44.488Z,23.90
2018-07-30T21:43:13.646Z,23.90
2018-07-30T21:45:42.722Z,23.90
2018-07-30T21:48:11.946Z,24.00
2018-07-30T21:50:41.613Z,24.10
2018-07-30T21:53:10.813Z,24.10
2018-07-30T21:55:39.983Z,24.00
2018-07-30T21:58:09.290Z,24.00
2018-07-30T22:00:38.686Z,23.90
2018-07-30T22:03:07.719Z,23.90
2018-07-30T22:05:36.909Z,24.00
2018-07-30T22:08:05.908Z,24.00
2018-07-30T22:10:35.789Z,24.10
2018-07-30T22:13:05.039Z,24.20
2018-07-30T22:15:34.142Z,24.30
2018-07-30T22:18:04.770Z,24.30
2018-07-30T22:20:33.883Z,24.30
2018-07-30T22:23:03.250Z,24.10
2018-07-30T22:25:32.950Z,24.00
2018-07-30T22:28:02.932Z,23.90
2018-07-30T22:30:32.054Z,23.80
2018-07-30T22:33:02.236Z,23.80
2018-07-30T22:35:32.173Z,23.70
2018-07-30T22:38:02.442Z,23.70
2018-07-30T22:40:32.910Z,24.00
2018-07-30T22:43:02.468Z,24.40
2018-07-30T22:45:32.368Z,24.40
2018-07-30T22:48:02.385Z,24.10
2018-07-30T22:50:32.583Z,23.90
2018-07-30T22:53:02.658Z,23.90
2018-07-30T22:55:32.470Z,23.80
2018-07-30T22:58:02.464Z,24.00
2018-07-30T23:00:32.595Z,23.80
2018-07-30T23:03:02.591Z,23.90
2018-07-30T23:05:32.626Z,23.80
2018-07-30T23:08:02.524Z,23.90
2018-07-30T23:10:32.662Z,23.70
2018-07-30T23:13:02.630Z,23.40
2018-07-30T23:15:32.749Z,23.50
2018-07-30T23:18:02.704Z,23.40
2018-07-30T23:20:32.677Z,23.50
2018-07-30T23:23:03.043Z,23.60
2018-07-30T23:25:32.807Z,23.80
2018-07-30T23:28:02.790Z,23.60
2018-07-30T23:30:32.862Z,23.70
2018-07-30T23:33:02.837Z,23.70
2018-07-30T23:35:32.997Z,23.50
2018-07-30T23:38:02.969Z,23.60
2018-07-30T23:40:33.038Z,23.60
2018-07-30T23:43:03.046Z,23.60
2018-07-30T23:45:33.310Z,23.50
2018-07-30T23:48:03.093Z,23.60
2018-07-30T23:50:33.147Z,23.50
2018-07-30T23:53:03.174Z,23.40
2018-07-30T23:55:33.205Z,23.20
2018-07-30T23:58:03.222Z,23.10
